Time;durP1;ratioP1;P1;durP2;ratioP2;P2;SDS_P1;SDS_P2;PMS_P1;PMS_P2;Temp;Humidity;BMP_temperature;BMP_pressure;BME280_temperature;BME280_humidity;BME280_pressure;Samples;Min_cycle;Max_cycle;Signal;HPM_P1;HPM_P2
2022/02/20 00:01:13;;;;;;;4.00;1.00;;;;;;;4.95;50.40;99675.67;1669739;84;21089;-62
2022/02/20 00:03:39;;;;;;;2.20;0.37;;;;;;;4.94;50.38;99676.67;1664569;84;21105;-62
2022/02/20 00:06:05;;;;;;;2.15;0.72;;;;;;;4.95;50.52;99678.81;1667385;85;21066;-62
2022/02/20 00:08:32;;;;;;;1.98;0.50;;;;;;;4.95;50.46;99681.45;1665388;85;22272;-62
2022/02/20 00:11:01;;;;;;;1.80;0.57;;;;;;;4.97;50.59;99692.67;1656950;85;21121;-61
2022/02/20 00:13:27;;;;;;;1.77;0.50;;;;;;;4.98;50.58;99694.34;1690259;83;21029;-61
2022/02/20 00:15:53;;;;;;;;;;;;;;;4.97;50.70;99693.52;1652768;85;21566;-61
2022/02/20 00:18:20;;;;;;;1.90;0.50;;;;;;;4.94;50.59;99688.56;1697976;83;20155;-61
2022/02/20 00:20:49;;;;;;;1.87;0.73;;;;;;;4.86;50.77;99696.00;1687390;83;21594;-63
2022/02/20 00:23:17;;;;;;;3.10;1.63;;;;;;;4.90;50.87;99695.17;1679794;83;21036;-61
2022/02/20 00:25:45;;;;;;;3.73;1.30;;;;;;;4.88;50.78;99694.02;1697288;83;21042;-62
2022/02/20 00:28:14;;;;;;;2.07;1.07;;;;;;;4.94;50.81;99705.73;1695772;83;21142;-62
2022/02/20 00:30:43;;;;;;;6.53;1.10;;;;;;;4.95;50.81;99701.27;1695437;83;21069;-61
2022/02/20 00:33:11;;;;;;;1.80;1.00;;;;;;;4.93;50.82;99705.39;1650386;83;20998;-60
2022/02/20 00:35:39;;;;;;;5.03;1.10;;;;;;;4.97;50.95;99709.84;1695811;83;21518;-61
2022/02/20 00:38:08;;;;;;;1.97;0.90;;;;;;;4.98;50.85;99715.47;1696217;83;21629;-61
2022/02/20 00:40:34;;;;;;;3.43;1.00;;;;;;;4.97;50.89;99711.16;1648996;85;21114;-62
2022/02/20 00:43:02;;;;;;;2.00;1.00;;;;;;;4.96;50.95;99712.98;1693994;83;21018;-61
2022/02/20 00:45:29;;;;;;;4.60;1.40;;;;;;;4.94;51.04;99714.16;1696626;83;20987;-61
2022/02/20 00:47:56;;;;;;;2.50;1.00;;;;;;;4.16;51.12;99608.09;1695759;83;21557;-61
2022/02/20 00:50:24;;;;;;;;;;;;;;;4.94;51.24;99739.25;1699085;83;21077;-63
2022/02/20 00:52:51;;;;;;;2.92;0.82;;;;;;;4.95;51.44;99736.92;1692490;83;20142;-61
2022/02/20 00:55:18;;;;;;;5.37;1.47;;;;;;;4.88;51.47;99740.23;1692344;83;21057;-62
2022/02/20 00:57:44;;;;;;;2.42;0.70;;;;;;;4.88;51.54;99738.91;1687530;84;20994;-61
2022/02/20 01:00:12;;;;;;;4.95;0.88;;;;;;;4.87;51.65;99739.89;1639556;85;20992;-60
2022/02/20 01:02:39;;;;;;;2.87;0.87;;;;;;;4.86;51.81;99740.08;1695258;83;21017;-62
2022/02/20 01:05:07;;;;;;;3.55;0.78;;;;;;;4.78;51.90;99744.84;1696975;83;21114;-60
2022/02/20 01:07:35;;;;;;;1.93;0.80;;;;;;;4.74;51.94;99751.45;1696877;83;21542;-61
2022/02/20 01:10:03;;;;;;;6.75;0.82;;;;;;;4.68;52.18;99762.17;1689597;83;21018;-60
2022/02/20 01:12:32;;;;;;;1.83;1.07;;;;;;;4.67;52.21;99757.89;1648836;85;21038;-61
2022/02/20 01:14:59;;;;;;;5.40;1.60;;;;;;;4.67;52.34;99763.64;1695342;83;22368;-61
2022/02/20 01:17:25;;;;;;;1.40;0.60;;;;;;;4.65;52.47;99758.56;1693590;83;21030;-61
2022/02/20 01:19:53;;;;;;;4.85;1.32;;;;;;;4.65;52.59;99775.72;1650246;85;21056;-61
2022/02/20 01:22:21;;;;;;;1.40;0.90;;;;;;;4.65;52.71;99779.67;1696526;83;20983;-64
2022/02/20 01:24:47;;;;;;;2.90;1.00;;;;;;;4.63;52.75;99779.02;1694432;83;21070;-62
2022/02/20 01:27:14;;;;;;;1.25;0.60;;;;;;;4.59;52.81;99781.63;1645181;85;21134;-60
2022/02/20 01:29:43;;;;;;;3.95;2.00;;;;;;;4.55;52.97;99780.31;1688762;83;21121;-61
2022/02/20 01:32:09;;;;;;;7.70;3.90;;;;;;;4.56;52.96;99781.13;1695095;83;21526;-60
2022/02/20 01:34:36;;;;;;;13.65;8.13;;;;;;;4.53;53.07;99791.52;1690346;83;21483;-61
2022/02/20 01:37:03;;;;;;;9.30;6.97;;;;;;;4.51;53.31;99795.33;1690540;83;21066;-61
2022/02/20 01:39:31;;;;;;;5.53;3.87;;;;;;;4.47;53.53;99800.91;1694645;83;21069;-62
2022/02/20 01:41:59;;;;;;;4.57;2.30;;;;;;;4.45;53.46;99806.85;1685319;83;21078;-61
2022/02/20 01:44:26;;;;;;;2.60;1.62;;;;;;;4.45;53.57;99810.81;1705513;83;21002;-61
2022/02/20 01:46:54;;;;;;;4.05;1.45;;;;;;;4.44;53.63;99804.37;1692464;83;21058;-62
2022/02/20 01:49:21;;;;;;;3.97;1.47;;;;;;;4.46;53.57;99801.92;1697380;83;21022;-61
2022/02/20 01:51:49;;;;;;;6.73;4.43;;;;;;;4.46;53.76;99807.20;1696526;83;21089;-60
2022/02/20 01:54:15;;;;;;;;;;;;;;;4.48;53.68;99809.17;1696551;83;21504;-61
2022/02/20 01:56:43;;;;;;;;;;;;;;;4.49;53.76;99822.69;1697352;82;20161;-61
2022/02/20 01:59:11;;;;;;;4.57;2.47;;;;;;;4.49;53.86;99821.88;1692762;83;20197;-61
2022/02/20 02:01:39;;;;;;;3.27;1.20;;;;;;;4.47;53.97;99815.94;1687468;83;21007;-62
2022/02/20 02:04:17;;;;;;;2.40;2.08;;;;;;;4.51;53.79;99825.67;1689656;83;21026;-61
2022/02/20 02:06:49;;;;;;;3.80;2.47;;;;;;;4.53;53.83;99835.58;1695410;83;21033;-62
2022/02/20 02:09:18;;;;;;;5.10;2.67;;;;;;;4.55;53.83;99837.55;1696122;83;21038;-61
2022/02/20 02:11:57;;;;;;;5.63;4.23;;;;;;;4.57;53.90;99838.22;1689787;83;21533;-60
2022/02/20 02:14:59;;;;;;;6.10;3.93;;;;;;;4.58;53.87;99838.06;1691533;83;21061;-61
2022/02/20 02:17:44;;;;;;;2.70;1.67;;;;;;;4.58;53.91;99839.38;1690979;83;21114;-61
2022/02/20 02:20:29;;;;;;;4.67;1.83;;;;;;;4.56;53.98;99840.04;1690250;83;21029;-61
2022/02/20 02:23:03;;;;;;;5.20;1.77;;;;;;;4.54;53.99;99840.70;1689005;83;21081;-62
2022/02/20 02:25:33;;;;;;;4.40;2.00;;;;;;;4.48;54.14;99842.17;1683830;83;21006;-60
2022/02/20 02:28:11;;;;;;;3.00;2.07;;;;;;;4.46;54.26;99845.47;1649253;85;21061;-62
2022/02/20 02:30:39;;;;;;;5.07;1.60;;;;;;;4.44;54.48;99847.41;1695231;83;21004;-61
2022/02/20 02:33:08;;;;;;;4.70;2.83;;;;;;;4.43;54.51;99842.31;1707169;83;21061;-61
2022/02/20 02:35:34;;;;;;;4.78;2.67;;;;;;;4.42;54.67;99844.61;1696120;83;21030;-60
2022/02/20 02:38:00;;;;;;;3.27;2.08;;;;;;;4.43;54.68;99842.31;1700538;83;21121;-61
2022/02/20 02:40:27;;;;;;;4.03;2.02;;;;;;;4.43;54.62;99842.31;1696072;83;21025;-60
2022/02/20 02:42:54;;;;;;;4.67;1.73;;;;;;;4.44;54.59;99846.09;1694826;83;21033;-60
2022/02/20 02:45:26;;;;;;;2.90;1.20;;;;;;;4.44;54.73;99844.77;1696226;81;21612;-61
2022/02/20 02:47:53;;;;;;;6.17;2.13;;;;;;;4.42;54.73;99848.06;1694637;83;21126;-62
2022/02/20 02:50:19;;;;;;;3.92;1.90;;;;;;;4.40;54.80;99855.83;1695654;83;21027;-60
2022/02/20 02:52:46;;;;;;;3.70;1.63;;;;;;;4.35;54.83;99848.41;1642664;85;21178;-61
2022/02/20 02:55:14;;;;;;;3.03;1.70;;;;;;;4.29;55.00;99852.97;1647584;85;21045;-62
2022/02/20 02:57:42;;;;;;;2.27;1.23;;;;;;;4.27;55.13;99847.03;1694562;83;21037;-61
2022/02/20 03:00:10;;;;;;;4.42;1.32;;;;;;;4.22;55.47;99847.99;1696526;83;21022;-61
2022/02/20 03:02:36;;;;;;;4.87;1.80;;;;;;;4.19;55.56;99852.28;1691325;83;21525;-61
2022/02/20 03:05:04;;;;;;;3.87;2.37;;;;;;;4.15;55.64;99850.45;1657163;85;21117;-60
2022/02/20 03:07:31;;;;;;;4.43;2.13;;;;;;;4.16;55.71;99852.09;1673434;84;21022;-60
2022/02/20 03:09:58;;;;;;;;;;;;;;;4.13;55.85;99857.70;1699424;83;21187;-61
2022/02/20 03:12:25;;;;;;;1.93;1.03;;;;;;;4.09;55.84;99857.19;1696222;83;20218;-60
2022/02/20 03:14:51;;;;;;;5.00;1.60;;;;;;;4.00;56.01;99867.36;1650125;85;21076;-61
2022/02/20 03:17:17;;;;;;;2.58;1.92;;;;;;;3.99;56.33;99876.25;1697068;83;21026;-62
2022/02/20 03:19:44;;;;;;;3.80;1.90;;;;;;;3.97;56.43;99876.89;1676573;84;21066;-61
2022/02/20 03:22:11;;;;;;;4.20;1.90;;;;;;;3.94;56.52;99886.45;1663882;84;21088;-60
2022/02/20 03:24:40;;;;;;;3.43;1.97;;;;;;;3.94;56.43;99885.61;1669809;84;21041;-61
2022/02/20 03:27:10;;;;;;;4.30;2.45;;;;;;;3.95;56.50;99885.95;1678721;84;21028;-60
2022/02/20 03:29:37;;;;;;;4.77;1.90;;;;;;;3.92;56.72;99885.80;1680564;84;21037;-61
2022/02/20 03:32:06;;;;;;;2.87;1.80;;;;;;;3.93;56.78;99885.30;1676693;84;21109;-62
2022/02/20 03:34:33;;;;;;;2.80;1.53;;;;;;;3.94;56.73;99889.09;1668527;84;21057;-61
2022/02/20 03:37:01;;;;;;;5.73;2.23;;;;;;;3.93;56.94;99883.47;1707821;83;21017;-61
2022/02/20 03:39:31;;;;;;;2.53;2.33;;;;;;;3.92;56.93;99880.98;1684613;83;21064;-62
2022/02/20 03:41:58;;;;;;;3.95;2.17;;;;;;;3.93;56.96;99886.61;1690609;83;21128;-63
2022/02/20 03:44:29;;;;;;;3.27;2.00;;;;;;;3.92;56.97;99885.80;1689189;83;21000;-60
2022/02/20 03:46:57;;;;;;;3.97;2.00;;;;;;;3.93;57.01;99882.16;1687518;83;21107;-62
2022/02/20 03:49:23;;;;;;;4.30;2.20;;;;;;;3.96;56.94;99884.49;1706715;83;21414;-59
2022/02/20 03:51:52;;;;;;;3.33;1.27;;;;;;;4.00;56.91;99883.69;1696698;83;21214;-61
2022/02/20 03:54:19;;;;;;;2.70;1.60;;;;;;;4.00;56.98;99883.19;1652249;85;21125;-61
2022/02/20 03:56:45;;;;;;;7.12;1.85;;;;;;;4.00;56.90;99883.19;1684901;82;21041;-60
2022/02/20 03:59:13;;;;;;;5.63;1.90;;;;;;;3.97;57.07;99884.81;1675066;84;21538;-60
2022/02/20 04:01:42;;;;;;;2.95;1.62;;;;;;;3.93;57.39;99900.61;1667574;84;21610;-60
2022/02/20 04:04:08;;;;;;;3.87;1.57;;;;;;;3.90;57.36;99896.98;1678428;84;21003;-61
2022/02/20 04:06:34;;;;;;;3.98;1.62;;;;;;;3.86;57.43;99900.42;1678542;84;21063;-61
2022/02/20 04:09:03;;;;;;;6.63;2.40;;;;;;;3.84;57.65;99906.34;1677976;84;21051;-60
2022/02/20 04:11:31;;;;;;;6.03;2.83;;;;;;;3.82;57.69;99909.60;1678471;83;21013;-60
2022/02/20 04:14:01;;;;;;;3.87;2.53;;;;;;;3.78;57.72;99907.44;1673833;84;21041;-61
2022/02/20 04:16:30;;;;;;;5.10;2.50;;;;;;;3.76;57.83;99913.36;1705419;83;21020;-61
2022/02/20 04:18:58;;;;;;;3.47;1.87;;;;;;;3.74;57.83;99907.42;1702196;83;21032;-61
2022/02/20 04:21:26;;;;;;;4.10;1.80;;;;;;;3.70;57.96;99901.13;1705891;83;21516;-60
2022/02/20 04:23:58;;;;;;;2.57;1.87;;;;;;;3.68;57.97;99897.83;1712230;82;21539;-60
2022/02/20 04:26:25;;;;;;;3.87;2.08;;;;;;;3.66;58.11;99893.20;1718166;82;21064;-61
2022/02/20 04:28:52;;;;;;;3.43;2.10;;;;;;;3.65;58.19;99903.39;1720213;82;21032;-61
2022/02/20 04:31:18;;;;;;;4.80;1.85;;;;;;;3.59;58.66;99904.02;1718205;82;21047;-61
2022/02/20 04:33:47;;;;;;;3.33;2.70;;;;;;;3.59;58.66;99904.02;1708389;83;21042;-61
2022/02/20 04:36:16;;;;;;;4.77;2.37;;;;;;;3.56;58.59;99903.49;1704528;82;21107;-60
2022/02/20 04:38:43;;;;;;;4.87;2.40;;;;;;;3.55;58.67;99906.62;1711937;83;21145;-63
2022/02/20 04:41:12;;;;;;;4.47;2.40;;;;;;;3.51;58.96;99902.65;1719211;82;21048;-62
2022/02/20 04:43:39;;;;;;;5.27;2.80;;;;;;;3.48;58.86;99904.27;1650105;85;21094;-61
2022/02/20 04:46:07;;;;;;;7.47;3.33;;;;;;;3.48;59.06;99903.80;1678848;82;21000;-60
2022/02/20 04:48:35;;;;;;;6.43;5.00;;;;;;;3.45;59.14;99908.54;1676642;84;22314;-60
2022/02/20 04:51:04;;;;;;;5.60;3.47;;;;;;;3.44;59.16;99910.82;1670501;84;21520;-60
2022/02/20 04:53:30;;;;;;;;;;;;;;;3.41;59.45;99907.16;1676201;84;21614;-59
2022/02/20 04:55:59;;;;;;;6.67;3.62;;;;;;;3.39;59.41;99915.71;1680517;84;20233;-60
2022/02/20 04:58:35;;;;;;;7.43;2.97;;;;;;;3.31;59.61;99916.47;1671381;84;21021;-60
2022/02/20 05:01:02;;;;;;;6.87;2.93;;;;;;;3.27;59.76;99922.53;1688801;83;21019;-61
2022/02/20 05:03:40;;;;;;;10.20;5.77;;;;;;;3.28;59.93;99932.11;1682287;83;21493;-60
2022/02/20 05:06:09;;;;;;;4.57;3.27;;;;;;;3.27;60.01;99939.66;1706660;83;21004;-60
2022/02/20 05:08:50;;;;;;;3.80;2.83;;;;;;;3.24;60.11;99942.61;1644682;85;21045;-61
2022/02/20 05:11:24;;;;;;;5.40;2.07;;;;;;;3.25;60.05;99944.25;1658534;85;21655;-60
2022/02/20 05:13:58;;;;;;;5.83;2.70;;;;;;;3.25;60.06;99944.75;1664436;85;21022;-60
2022/02/20 05:16:27;;;;;;;4.70;2.73;;;;;;;3.29;59.98;99952.18;1644852;85;21159;-60
2022/02/20 05:18:54;;;;;;;4.63;2.53;;;;;;;3.31;59.95;99957.30;1643190;85;21096;-62
2022/02/20 05:21:22;;;;;;;4.43;3.07;;;;;;;3.41;59.84;99960.70;1648129;85;21003;-61
2022/02/20 05:23:49;;;;;;;3.30;2.03;;;;;;;3.58;59.48;99962.99;1663946;84;21083;-61
2022/02/20 05:26:15;;;;;;;2.17;1.85;;;;;;;3.83;58.62;99961.86;1646354;85;21009;-60
2022/02/20 05:28:42;;;;;;;4.28;2.33;;;;;;;4.11;57.92;99970.46;1676706;84;20989;-60
2022/02/20 05:31:10;;;;;;;6.97;2.77;;;;;;;4.42;57.64;99969.46;1677141;84;20997;-60
2022/02/20 05:33:36;;;;;;;;;;;;;;;4.87;56.37;99978.89;1679142;84;21014;-60
2022/02/20 05:36:03;;;;;;;6.97;2.50;;;;;;;5.25;54.32;99981.13;1668150;84;20143;-61
2022/02/20 05:38:31;;;;;;;4.30;2.30;;;;;;;5.54;54.07;99988.63;1673535;84;22423;-61
2022/02/20 05:40:58;;;;;;;;;;;;;;;5.94;52.71;99982.98;1679287;84;21537;-61
2022/02/20 05:43:24;;;;;;;3.77;2.70;;;;;;;6.24;52.02;99987.28;1681711;84;20648;-61
2022/02/20 05:45:50;;;;;;;2.27;2.08;;;;;;;6.58;51.95;99980.91;1672576;84;21492;-62
2022/02/20 05:48:18;;;;;;;4.73;2.17;;;;;;;7.11;50.71;99981.16;1669324;84;21145;-61
2022/02/20 05:50:53;;;;;;;3.50;1.80;;;;;;;7.69;48.93;99975.78;1662871;84;21084;-61
2022/02/20 05:53:20;;;;;;;5.37;1.70;;;;;;;8.29;47.93;99973.25;1676444;84;21382;-62
2022/02/20 05:55:50;;;;;;;2.75;1.47;;;;;;;8.75;45.74;99982.37;1681903;84;21008;-61
2022/02/20 05:58:17;;;;;;;1.90;1.40;;;;;;;8.72;44.69;99982.72;1692301;83;21527;-62
2022/02/20 06:00:51;;;;;;;4.67;2.67;;;;;;;8.60;44.94;99981.56;1685848;82;21151;-62
2022/02/20 06:03:18;;;;;;;4.70;2.23;;;;;;;8.63;44.95;99986.00;1672827;84;21132;-61
2022/02/20 06:05:56;;;;;;;3.23;2.40;;;;;;;8.72;44.53;99986.71;1672711;84;21071;-61
2022/02/20 06:08:24;;;;;;;4.27;3.23;;;;;;;8.83;44.85;99992.88;1675287;84;21130;-61
2022/02/20 06:10:54;;;;;;;4.67;2.97;;;;;;;9.19;44.16;99997.91;1670268;84;21076;-61
2022/02/20 06:13:22;;;;;;;4.73;3.50;;;;;;;9.66;43.66;99999.20;1661750;84;21553;-62
2022/02/20 06:16:03;;;;;;;3.70;2.93;;;;;;;10.15;42.16;99993.06;1661352;85;21074;-62
2022/02/20 06:18:39;;;;;;;5.40;2.50;;;;;;;10.70;40.85;99996.72;1654208;85;21027;-63
2022/02/20 06:21:25;;;;;;;3.15;1.82;;;;;;;11.01;40.63;100003.93;1694341;83;21055;-61
2022/02/20 06:23:54;;;;;;;4.90;2.22;;;;;;;10.86;39.74;100000.07;1694275;82;21930;-67
2022/02/20 06:26:25;;;;;;;2.58;1.70;;;;;;;9.86;40.96;100012.19;1694043;83;21107;-63
2022/02/20 06:28:52;;;;;;;5.10;1.87;;;;;;;8.66;43.35;100008.20;1658899;85;21109;-66
2022/02/20 06:31:20;;;;;;;4.00;2.20;;;;;;;7.90;44.91;100010.92;1695742;83;21048;-64
2022/02/20 06:33:47;;;;;;;3.17;2.02;;;;;;;6.92;47.01;99966.52;1692827;83;20989;-64
2022/02/20 06:36:14;;;;;;;4.93;2.27;;;;;;;6.80;47.71;100017.23;1658883;85;21171;-65
2022/02/20 06:38:45;;;;;;;4.97;2.97;;;;;;;6.45;49.29;100019.83;1693017;83;22385;-64
2022/02/20 06:41:12;;;;;;;4.70;3.37;;;;;;;6.20;50.13;100023.03;1695226;83;20992;-65
2022/02/20 06:43:43;;;;;;;3.57;2.37;;;;;;;5.97;50.72;100030.32;1692901;83;21079;-63
2022/02/20 06:46:28;;;;;;;2.93;2.40;;;;;;;5.82;51.70;100034.09;1659222;85;21041;-63
2022/02/20 06:49:13;;;;;;;3.83;1.97;;;;;;;5.56;52.41;100035.55;1691556;83;21087;-61
2022/02/20 06:51:56;;;;;;;5.87;2.30;;;;;;;5.34;53.32;100045.41;1693897;83;21528;-61
2022/02/20 06:54:43;;;;;;;5.03;1.83;;;;;;;5.26;53.30;100041.76;1662586;85;21887;-61
2022/02/20 06:57:20;;;;;;;4.87;3.10;;;;;;;5.23;54.04;100047.36;1668383;84;21561;-61
2022/02/20 06:59:46;;;;;;;3.05;1.87;;;;;;;5.22;53.87;100044.89;1668520;84;21537;-61
2022/02/20 07:02:12;;;;;;;7.70;2.40;;;;;;;5.19;54.17;100046.02;1661699;85;21757;-62
2022/02/20 07:04:39;;;;;;;6.37;1.82;;;;;;;5.20;53.99;100050.84;1688967;83;21088;-62
2022/02/20 07:08:02;;;;;;;3.40;2.10;;;;;;;5.29;54.34;100043.74;1802177;78;23008;-62
2022/02/20 07:10:29;;;;;;;7.97;3.10;;;;;;;5.29;53.96;100041.92;1765602;80;21148;-62
2022/02/20 07:12:55;;;;;;;2.35;1.32;;;;;;;5.28;53.97;100051.35;1735608;80;21695;-61
2022/02/20 07:15:23;;;;;;;3.50;1.65;;;;;;;5.31;54.08;100056.30;1724670;81;21060;-65
2022/02/20 07:17:50;;;;;;;2.87;1.23;;;;;;;5.35;54.70;100053.66;1716112;81;21120;-65
2022/02/20 07:20:17;;;;;;;3.42;1.37;;;;;;;5.46;54.13;100066.58;1731887;81;21061;-68
2022/02/20 07:22:45;;;;;;;5.63;2.53;;;;;;;5.48;54.36;100058.48;1732776;82;21032;-65
2022/02/20 07:25:12;;;;;;;3.63;1.57;;;;;;;5.54;53.71;100056.51;1727047;81;21109;-68
2022/02/20 07:27:43;;;;;;;3.97;2.13;;;;;;;5.59;53.90;100056.86;1728353;81;20974;-66
2022/02/20 07:30:12;;;;;;;3.57;1.63;;;;;;;5.66;53.56;100054.72;1731137;81;20983;-67
2022/02/20 07:32:40;;;;;;;4.10;1.40;;;;;;;5.75;53.61;100058.21;1689519;83;21016;-67
2022/02/20 07:35:07;;;;;;;4.80;1.73;;;;;;;5.83;53.77;100062.67;1693028;83;21022;-68
2022/02/20 07:37:34;;;;;;;2.60;1.07;;;;;;;5.88;52.91;100061.70;1669713;84;21030;-67
2022/02/20 07:40:03;;;;;;;2.53;1.50;;;;;;;5.81;52.83;100062.84;1637781;86;21149;-68
2022/02/20 07:42:32;;;;;;;2.53;0.87;;;;;;;5.82;53.05;100071.59;1650218;85;21057;-68
2022/02/20 07:44:58;;;;;;;;;;;;;;;5.78;53.23;100065.83;1666069;84;21013;-67
2022/02/20 07:47:26;;;;;;;3.15;1.00;;;;;;;5.77;53.09;100059.38;1656237;85;20481;-66
2022/02/20 07:49:52;;;;;;;4.83;1.60;;;;;;;5.69;53.30;100052.73;1651904;85;21010;-68
2022/02/20 07:52:21;;;;;;;3.67;1.15;;;;;;;5.73;53.32;100040.86;1653484;85;21064;-70
2022/02/20 07:54:47;;;;;;;4.53;1.40;;;;;;;5.86;53.84;100033.27;1654447;85;21145;-67
2022/02/20 07:57:14;;;;;;;3.77;1.70;;;;;;;5.96;53.14;100022.04;1647762;85;21068;-68
2022/02/20 07:59:41;;;;;;;6.37;1.73;;;;;;;6.07;52.48;100019.56;1653062;85;21120;-67
2022/02/20 08:02:07;;;;;;;4.60;3.58;;;;;;;6.14;52.45;100032.94;1670071;84;21125;-69
2022/02/20 08:04:34;;;;;;;4.87;2.77;;;;;;;6.21;52.15;100032.60;1676708;84;21059;-70
2022/02/20 08:07:04;;;;;;;4.63;2.60;;;;;;;6.21;52.17;100025.48;1669761;84;21165;-67
2022/02/20 08:09:30;;;;;;;7.20;1.80;;;;;;;6.24;52.37;100029.63;1667787;84;21019;-68
2022/02/20 08:11:57;;;;;;;3.77;2.17;;;;;;;6.34;52.15;100028.13;1659325;84;21011;-66
2022/02/20 08:14:23;;;;;;;5.20;1.82;;;;;;;6.37;52.14;100030.45;1659543;85;21117;-68
2022/02/20 08:16:50;;;;;;;2.98;1.65;;;;;;;6.41;51.92;100039.19;1635563;86;21145;-69
2022/02/20 08:19:16;;;;;;;2.80;1.30;;;;;;;6.41;51.29;100041.02;1637115;86;21106;-70
2022/02/20 08:21:42;;;;;;;3.55;1.95;;;;;;;6.37;51.71;100039.71;1637056;86;21033;-69
2022/02/20 08:24:08;;;;;;;5.53;2.20;;;;;;;6.38;51.45;100046.13;1683911;84;21562;-67
2022/02/20 08:26:35;;;;;;;6.63;1.77;;;;;;;6.41;51.97;100052.42;1684364;84;21546;-70
2022/02/20 08:29:01;;;;;;;;;;;;;;;6.53;51.85;100045.45;1686505;84;21574;-68
2022/02/20 08:31:27;;;;;;;3.37;1.83;;;;;;;6.65;51.35;100049.89;1687674;84;20245;-69
2022/02/20 08:33:54;;;;;;;4.67;1.90;;;;;;;6.68;51.72;100049.56;1696136;82;21610;-71
2022/02/20 08:36:20;;;;;;;3.62;1.92;;;;;;;6.83;51.43;100049.17;1717023;82;21845;-65
2022/02/20 08:38:49;;;;;;;8.57;2.37;;;;;;;6.94;51.25;100045.33;1717428;82;21041;-66
2022/02/20 08:41:15;;;;;;;5.30;3.63;;;;;;;7.00;50.99;100051.27;1717126;82;21034;-67
2022/02/20 08:43:41;;;;;;;3.65;2.02;;;;;;;7.08;50.87;100047.24;1716880;82;21114;-68
2022/02/20 08:46:07;;;;;;;2.17;1.80;;;;;;;7.17;50.36;100044.06;1716943;82;21613;-64
2022/02/20 08:48:36;;;;;;;7.67;2.05;;;;;;;7.21;49.91;100047.54;1714013;82;21033;-73
2022/02/20 08:51:07;;;;;;;4.50;2.37;;;;;;;7.23;50.14;100047.84;1712820;82;21014;-72
2022/02/20 08:53:38;;;;;;;7.47;2.53;;;;;;;7.30;50.16;100047.48;1690274;83;21058;-67
2022/02/20 08:56:06;;;;;;;6.17;2.30;;;;;;;7.34;50.06;100054.09;1705523;82;21002;-66
2022/02/20 08:58:33;;;;;;;3.77;2.70;;;;;;;7.35;50.44;100042.49;1703120;83;21026;-66
2022/02/20 09:01:02;;;;;;;7.37;3.03;;;;;;;7.34;50.40;100043.48;1704659;82;21096;-66
2022/02/20 09:03:30;;;;;;;6.47;2.60;;;;;;;7.35;50.46;100045.96;1716395;82;21870;-67
2022/02/20 09:05:59;;;;;;;5.65;3.35;;;;;;;7.43;50.48;100052.22;1723069;82;21518;-69
2022/02/20 09:08:26;;;;;;;3.83;2.40;;;;;;;7.55;49.79;100050.81;1712051;82;21041;-66
2022/02/20 09:10:53;;;;;;;6.30;2.60;;;;;;;7.60;49.53;100049.28;1717836;82;21561;-67
2022/02/20 09:13:21;;;;;;;4.80;2.63;;;;;;;7.65;49.60;100050.09;1699712;82;21568;-70
2022/02/20 09:15:49;;;;;;;2.90;1.70;;;;;;;7.61;49.34;100056.76;1715971;82;21502;-66
2022/02/20 09:18:16;;;;;;;3.57;1.67;;;;;;;7.60;49.49;100056.42;1720055;82;21019;-65
2022/02/20 09:20:44;;;;;;;4.27;2.27;;;;;;;7.60;49.04;100054.59;1707031;82;21784;-69
2022/02/20 09:23:10;;;;;;;5.75;2.45;;;;;;;7.61;49.08;100060.73;1717702;82;21116;-68
2022/02/20 09:25:36;;;;;;;3.90;1.90;;;;;;;7.56;48.73;100067.87;1716827;82;21016;-68
2022/02/20 09:28:03;;;;;;;3.27;2.27;;;;;;;7.59;48.88;100066.69;1716628;82;21033;-65
2022/02/20 09:30:30;;;;;;;5.90;2.47;;;;;;;7.70;48.87;100061.48;1707249;82;21115;-66
2022/02/20 09:32:56;;;;;;;4.83;2.10;;;;;;;7.73;48.12;100063.80;1682031;85;21097;-69
2022/02/20 09:35:24;;;;;;;6.17;2.70;;;;;;;7.79;48.18;100070.54;1720235;82;21010;-68
2022/02/20 09:37:50;;;;;;;3.87;1.43;;;;;;;7.88;48.08;100068.66;1714219;82;21534;-70
2022/02/20 09:40:16;;;;;;;3.70;1.80;;;;;;;7.98;47.01;100073.73;1710128;82;20991;-70
2022/02/20 09:42:43;;;;;;;2.98;1.30;;;;;;;8.02;46.88;100075.02;1710165;82;21188;-69
2022/02/20 09:45:10;;;;;;;3.58;1.98;;;;;;;8.06;47.01;100072.83;1706795;82;21030;-73
2022/02/20 09:47:39;;;;;;;4.03;2.03;;;;;;;8.13;46.69;100075.92;1676748;84;22095;-68
2022/02/20 09:50:07;;;;;;;4.90;2.20;;;;;;;8.20;45.83;100077.37;1716180;82;21142;-72
2022/02/20 09:52:34;;;;;;;4.30;2.30;;;;;;;8.18;45.68;100067.44;1708103;82;21550;-71
2022/02/20 09:55:00;;;;;;;8.15;3.37;;;;;;;8.14;46.55;100069.62;1712595;82;21117;-71
2022/02/20 09:57:26;;;;;;;5.70;3.90;;;;;;;8.13;46.47;100061.83;1716342;82;21145;-71
2022/02/20 09:59:54;;;;;;;5.27;2.07;;;;;;;8.15;46.94;100067.78;1741626;81;21537;-69
2022/02/20 10:02:21;;;;;;;3.83;2.13;;;;;;;8.17;46.54;100065.30;1742558;81;21016;-64
2022/02/20 10:04:49;;;;;;;;;;;;;;;8.15;45.82;100049.20;1734671;81;21070;-65
2022/02/20 10:07:31;;;;;;;6.17;1.70;;;;;;;8.17;45.73;100045.86;1732751;81;20575;-68
2022/02/20 10:09:59;;;;;;;3.10;1.90;;;;;;;8.15;45.61;100045.22;1722346;81;21016;-67
2022/02/20 10:12:29;;;;;;;7.43;2.17;;;;;;;8.12;45.69;100030.99;1739227;81;20951;-68
2022/02/20 10:14:56;;;;;;;3.90;2.60;;;;;;;8.05;46.15;100032.20;1687610;83;21041;-68
2022/02/20 10:17:27;;;;;;;5.17;2.70;;;;;;;8.00;46.50;100026.59;1710989;81;21601;-68
2022/02/20 10:20:19;;;;;;;4.77;2.10;;;;;;;7.99;46.32;100027.11;1715392;81;20983;-70
2022/02/20 10:22:47;;;;;;;4.30;1.90;;;;;;;8.01;46.49;100024.79;1718074;81;21085;-70
2022/02/20 10:25:32;;;;;;;4.13;2.10;;;;;;;8.04;46.12;100020.42;1718676;81;21052;-65
2022/02/20 10:28:18;;;;;;;3.43;1.70;;;;;;;7.99;45.39;100020.47;1725704;81;21419;-69
2022/02/20 10:30:49;;;;;;;8.43;2.10;;;;;;;7.90;45.95;100011.44;1729282;81;21546;-65
2022/02/20 10:33:20;;;;;;;4.73;2.20;;;;;;;7.90;46.46;100004.80;1672643;83;21082;-65
2022/02/20 10:35:53;;;;;;;4.27;1.90;;;;;;;7.98;46.26;100010.84;1722385;82;21037;-66
2022/02/20 10:38:23;;;;;;;3.10;1.97;;;;;;;8.04;45.92;99993.88;1722921;82;21013;-66
2022/02/20 10:40:52;;;;;;;5.60;2.43;;;;;;;8.07;45.59;100005.48;1721410;82;21067;-65
2022/02/20 10:43:31;;;;;;;6.80;2.70;;;;;;;8.06;45.70;100011.30;1716812;82;21017;-65
2022/02/20 10:46:16;;;;;;;4.40;2.10;;;;;;;8.09;45.62;100001.63;1721492;82;21163;-65
2022/02/20 10:48:47;;;;;;;3.87;1.70;;;;;;;8.09;44.76;100002.95;1693395;83;21035;-67
2022/02/20 10:51:17;;;;;;;6.30;2.30;;;;;;;8.05;44.82;99994.22;1684780;82;21503;-65
2022/02/20 10:53:48;;;;;;;3.80;2.33;;;;;;;8.04;45.04;99994.70;1720443;82;21037;-65
2022/02/20 10:56:14;;;;;;;5.17;1.70;;;;;;;8.06;44.94;99990.06;1691089;82;21086;-65
2022/02/20 10:58:49;;;;;;;8.50;2.17;;;;;;;8.12;45.05;99984.03;1688758;83;21086;-64
2022/02/20 11:01:26;;;;;;;5.70;2.60;;;;;;;8.13;44.79;99979.53;1688074;84;21039;-66
2022/02/20 11:04:10;;;;;;;5.50;1.90;;;;;;;8.11;44.27;99980.22;1683663;84;21043;-64
2022/02/20 11:06:34;;;;;;;5.70;1.87;;;;;;;8.12;44.49;99984.54;1683968;84;21020;-64
2022/02/20 11:09:04;;;;;;;3.27;1.55;;;;;;;8.16;44.16;99978.67;1682850;84;21105;-64
2022/02/20 11:11:38;;;;;;;5.00;1.87;;;;;;;8.23;44.45;99975.28;1683484;83;21066;-66
2022/02/20 11:14:10;;;;;;;4.00;2.03;;;;;;;8.30;44.06;99973.55;1679433;83;21055;-66
2022/02/20 11:16:47;;;;;;;3.00;1.90;;;;;;;8.26;43.38;99962.98;1686702;83;21006;-66
2022/02/20 11:19:18;;;;;;;6.07;2.47;;;;;;;8.17;43.75;99974.17;1674719;83;22131;-64
2022/02/20 11:21:50;;;;;;;5.97;1.70;;;;;;;8.10;44.11;99967.45;1697135;83;21088;-66
2022/02/20 11:24:18;;;;;;;5.97;2.10;;;;;;;8.15;44.23;99954.95;1682610;83;21537;-65
2022/02/20 11:26:45;;;;;;;4.53;1.90;;;;;;;8.20;44.14;99944.62;1682340;83;21016;-66
2022/02/20 11:29:13;;;;;;;5.63;2.23;;;;;;;8.25;44.14;99938.75;1672555;83;21036;-67
2022/02/20 11:31:41;;;;;;;1.77;1.00;;;;;;;8.28;43.78;99933.08;1666113;83;21405;-68
2022/02/20 11:34:11;;;;;;;5.47;2.47;;;;;;;8.31;43.78;99935.39;1657712;83;21093;-65
2022/02/20 11:36:37;;;;;;;5.50;1.93;;;;;;;8.35;43.59;99924.71;1669622;84;21045;-67
2022/02/20 11:39:13;;;;;;;7.17;1.60;;;;;;;8.41;43.74;99922.64;1669429;84;21061;-70
2022/02/20 11:42:01;;;;;;;4.33;1.80;;;;;;;8.43;43.15;99921.16;1685927;84;21323;-69
2022/02/20 11:44:28;;;;;;;2.90;1.77;;;;;;;8.39;42.90;99916.17;1677315;82;21568;-66
2022/02/20 11:46:55;;;;;;;4.72;1.77;;;;;;;8.35;43.21;99913.58;1691875;84;21038;-70
2022/02/20 11:49:26;;;;;;;;;;;;;;;8.35;43.08;99910.92;1725208;81;21033;-68
2022/02/20 11:52:02;;;;;;;7.93;1.77;;;;;;;8.32;42.80;99912.60;1711666;81;20127;-68